Time;durP1;ratioP1;P1;durP2;ratioP2;P2;SDS_P1;SDS_P2;PMS_P1;PMS_P2;Temp;Humidity;BMP_temperature;BMP_pressure;BME280_temperature;BME280_humidity;BME280_pressure;Samples;Min_cycle;Max_cycle;Signal;HPM_P1;HPM_P2
2020/12/01 00:01:40;;;;;;;23.43;14.10;;;0.90;99.90;;;;;;5045753;28;20445;-89
2020/12/01 00:04:06;;;;;;;26.20;14.23;;;0.80;99.90;;;;;;5038240;28;20803;-91
2020/12/01 00:06:32;;;;;;;11.87;6.47;;;;;;;;;;5036340;28;20443;-91
2020/12/01 00:08:59;;;;;;;13.23;6.70;;;0.70;99.90;;;;;;5037622;28;20465;-89
2020/12/01 00:11:26;;;;;;;10.50;6.70;;;0.90;99.90;;;;;;5037247;28;20459;-90
2020/12/01 00:13:52;;;;;;;24.73;14.13;;;1.10;99.90;;;;;;5037315;28;20455;-91
2020/12/01 00:16:19;;;;;;;30.93;16.37;;;0.80;99.90;;;;;;5036569;28;20856;-89
2020/12/01 00:18:45;;;;;;;22.97;12.80;;;1.00;99.90;;;;;;5036558;28;20864;-90
2020/12/01 00:21:13;;;;;;;14.37;6.77;;;0.90;99.90;;;;;;5037129;28;20467;-88
2020/12/01 00:23:40;;;;;;;23.43;8.20;;;0.90;99.90;;;;;;5036536;28;20467;-90
2020/12/01 00:26:06;;;;;;;23.07;10.27;;;0.90;99.90;;;;;;5036923;28;20804;-89
2020/12/01 00:28:34;;;;;;;15.33;7.80;;;1.00;99.90;;;;;;5037201;28;20447;-90
2020/12/01 00:31:01;;;;;;;18.30;11.27;;;;;;;;;;5036823;28;20444;-87
2020/12/01 00:33:27;;;;;;;17.63;10.23;;;0.70;99.90;;;;;;5036054;28;20447;-89
2020/12/01 00:35:54;;;;;;;15.23;5.77;;;0.90;99.90;;;;;;5036604;28;20459;-88
2020/12/01 00:38:21;;;;;;;19.27;9.80;;;0.70;99.90;;;;;;5035031;28;20502;-89
2020/12/01 00:40:47;;;;;;;22.27;12.30;;;0.60;99.90;;;;;;5036238;28;20456;-90
2020/12/01 00:43:14;;;;;;;29.50;13.90;;;0.80;99.90;;;;;;5036509;28;20453;-88
2020/12/01 00:45:42;;;;;;;24.93;14.13;;;0.90;99.90;;;;;;5037961;28;20450;-93
2020/12/01 00:48:09;;;;;;;35.90;16.90;;;;;;;;;;5036943;28;20460;-90
2020/12/01 00:50:35;;;;;;;22.57;11.47;;;;;;;;;;5036504;28;20793;-90
2020/12/01 00:53:02;;;;;;;19.73;8.97;;;0.80;99.90;;;;;;5036511;28;20436;-88
2020/12/01 00:55:28;;;;;;;22.93;9.53;;;0.80;99.90;;;;;;5038941;28;20436;-94
2020/12/01 00:57:54;;;;;;;32.40;16.00;;;1.60;99.90;;;;;;5041833;28;20506;-88
2020/12/01 01:00:24;;;;;;;13.43;8.60;;;0.80;99.90;;;;;;5044080;28;20514;-90
2020/12/01 01:02:51;;;;;;;23.03;11.90;;;0.90;99.90;;;;;;5036813;28;20494;-89
2020/12/01 01:05:18;;;;;;;24.63;12.67;;;0.60;99.90;;;;;;5036427;28;20459;-89
2020/12/01 01:07:44;;;;;;;28.83;15.50;;;1.00;99.90;;;;;;5035985;28;20449;-88
2020/12/01 01:10:16;;;;;;;18.43;10.83;;;0.80;99.90;;;;;;5035389;28;20824;-88
2020/12/01 01:12:42;;;;;;;24.03;13.63;;;0.80;99.90;;;;;;5035654;28;20452;-91
2020/12/01 01:15:08;;;;;;;34.63;17.53;;;;;;;;;;5035479;28;20809;-89
2020/12/01 01:17:35;;;;;;;20.63;9.27;;;0.90;99.90;;;;;;5035582;28;20479;-86
2020/12/01 01:20:03;;;;;;;20.87;11.70;;;0.90;99.90;;;;;;5035634;28;20858;-90
2020/12/01 01:22:29;;;;;;;26.17;12.67;;;0.80;99.90;;;;;;5036682;28;20444;-90
2020/12/01 01:24:55;;;;;;;18.43;8.90;;;0.80;99.90;;;;;;5036653;28;20455;-90
2020/12/01 01:27:21;;;;;;;16.40;9.20;;;0.90;99.90;;;;;;5037299;28;20440;-91
2020/12/01 01:29:48;;;;;;;17.27;8.67;;;1.00;99.90;;;;;;5034817;28;20459;-86
2020/12/01 01:32:14;;;;;;;22.57;12.53;;;0.90;99.90;;;;;;5036479;28;20455;-91
2020/12/01 01:34:40;;;;;;;21.60;12.47;;;0.90;99.90;;;;;;5035375;28;20974;-87
2020/12/01 01:37:08;;;;;;;17.67;9.47;;;0.80;99.90;;;;;;5035899;28;20455;-86
2020/12/01 01:39:34;;;;;;;21.30;7.67;;;;;;;;;;5036868;28;20441;-88
2020/12/01 01:42:05;;;;;;;20.37;9.87;;;1.00;99.90;;;;;;5037454;28;20444;-88
2020/12/01 01:44:31;;;;;;;18.17;10.80;;;1.10;99.90;;;;;;5035621;28;20841;-92
2020/12/01 01:47:05;;;;;;;10.57;6.27;;;1.00;99.90;;;;;;5037998;28;20817;-90
2020/12/01 01:49:36;;;;;;;10.90;6.10;;;1.10;99.90;;;;;;5034571;28;20954;-89
2020/12/01 01:52:04;;;;;;;14.00;6.93;;;0.90;99.90;;;;;;5037143;28;20460;-89
2020/12/01 01:54:31;;;;;;;22.23;12.93;;;1.00;99.90;;;;;;5035694;28;20458;-88
2020/12/01 01:57:03;;;;;;;14.17;8.50;;;1.10;99.90;;;;;;5034974;28;20472;-89
2020/12/01 01:59:31;;;;;;;10.57;5.50;;;1.20;99.90;;;;;;5037454;28;20485;-91
2020/12/01 02:01:59;;;;;;;19.23;9.90;;;1.00;99.90;;;;;;5034138;28;20823;-91
2020/12/01 02:04:26;;;;;;;13.33;8.03;;;1.10;99.90;;;;;;5033568;28;20451;-92
2020/12/01 02:06:54;;;;;;;28.87;12.23;;;1.10;99.90;;;;;;5035781;28;20446;-88
2020/12/01 02:09:27;;;;;;;17.00;9.53;;;1.10;99.90;;;;;;5035314;28;20452;-89
2020/12/01 02:11:56;;;;;;;26.23;14.30;;;1.10;99.90;;;;;;5035180;28;20444;-90
2020/12/01 02:14:30;;;;;;;23.37;13.70;;;1.10;99.90;;;;;;5044152;28;20439;-90
2020/12/01 02:16:58;;;;;;;19.77;11.07;;;1.20;99.90;;;;;;5057482;28;20444;-92
2020/12/01 02:19:31;;;;;;;7.10;4.33;;;1.10;99.90;;;;;;5035243;28;20500;-89
2020/12/01 02:21:58;;;;;;;22.67;13.97;;;1.00;99.90;;;;;;5034121;28;20463;-89
2020/12/01 02:24:27;;;;;;;28.27;15.60;;;1.10;99.90;;;;;;5035640;28;20457;-88
2020/12/01 02:26:59;;;;;;;28.37;14.50;;;1.10;99.90;;;;;;5036458;28;20456;-90
2020/12/01 02:29:29;;;;;;;23.00;13.00;;;1.10;99.90;;;;;;5041402;28;20456;-91
2020/12/01 02:31:56;;;;;;;27.27;15.57;;;1.10;99.90;;;;;;5036462;28;20462;-90
2020/12/01 02:34:30;;;;;;;29.03;15.30;;;1.10;99.90;;;;;;5034374;28;20440;-90
2020/12/01 02:36:56;;;;;;;19.40;11.23;;;1.10;99.90;;;;;;5035481;28;20455;-89
2020/12/01 02:39:23;;;;;;;9.00;5.30;;;1.10;99.90;;;;;;5035936;28;20493;-89
2020/12/01 02:41:49;;;;;;;24.23;14.10;;;1.10;99.90;;;;;;5034758;28;20487;-91
2020/12/01 02:44:16;;;;;;;20.70;10.00;;;1.20;99.90;;;;;;5035381;28;20447;-90
2020/12/01 02:46:43;;;;;;;24.70;15.37;;;;;;;;;;5035868;28;20447;-90
2020/12/01 02:49:11;;;;;;;25.03;13.00;;;;;;;;;;5039171;28;20758;-90
2020/12/01 02:51:39;;;;;;;21.73;13.50;;;1.10;99.90;;;;;;5042249;28;20835;-93
2020/12/01 02:54:08;;;;;;;15.67;9.73;;;1.10;99.90;;;;;;5037248;28;20452;-91
2020/12/01 02:56:34;;;;;;;16.90;10.17;;;1.10;99.90;;;;;;5041280;28;20460;-92
2020/12/01 02:59:05;;;;;;;15.33;5.73;;;1.20;99.90;;;;;;5041944;28;20488;-92
2020/12/01 03:01:32;;;;;;;15.73;9.53;;;0.90;99.90;;;;;;5041990;28;20509;-91
2020/12/01 03:04:00;;;;;;;13.83;8.03;;;1.20;99.90;;;;;;5042837;28;20991;-94
2020/12/01 03:06:29;;;;;;;11.17;7.50;;;;;;;;;;5039884;28;20434;-88
2020/12/01 03:08:58;;;;;;;15.77;7.50;;;;;;;;;;5042723;28;20464;-93
2020/12/01 03:11:26;;;;;;;22.63;12.40;;;;;;;;;;5039341;28;20448;-90
2020/12/01 03:13:52;;;;;;;10.47;4.03;;;1.30;99.90;;;;;;5039499;28;20457;-93
2020/12/01 03:16:20;;;;;;;11.57;7.00;;;1.40;99.90;;;;;;5041972;28;20522;-92
2020/12/01 03:18:50;;;;;;;17.40;10.13;;;1.30;99.90;;;;;;5041185;28;20492;-91
2020/12/01 03:21:16;;;;;;;25.57;12.70;;;1.40;99.90;;;;;;5039666;28;20461;-88
2020/12/01 03:23:44;;;;;;;21.27;11.63;;;1.30;99.90;;;;;;5037325;28;20457;-91
2020/12/01 03:26:12;;;;;;;22.73;12.13;;;1.40;99.90;;;;;;5035925;28;20478;-87
2020/12/01 03:28:39;;;;;;;14.93;7.40;;;1.40;99.90;;;;;;5039043;28;20459;-91
2020/12/01 03:31:07;;;;;;;8.67;5.80;;;1.60;99.90;;;;;;5043084;28;20994;-91
2020/12/01 03:33:33;;;;;;;22.70;13.60;;;1.40;99.90;;;;;;5049015;28;20444;-89
2020/12/01 03:36:00;;;;;;;9.57;7.03;;;-0.30;99.90;;;;;;5041855;28;20446;-90
2020/12/01 03:38:27;;;;;;;9.70;5.70;;;1.50;99.90;;;;;;5037419;28;20479;-91
2020/12/01 03:40:54;;;;;;;14.50;8.83;;;1.40;99.90;;;;;;5036400;28;20445;-89
2020/12/01 03:43:20;;;;;;;11.33;5.50;;;1.50;99.90;;;;;;5038973;28;20429;-89
2020/12/01 03:45:47;;;;;;;17.90;10.47;;;1.40;99.90;;;;;;5036980;28;20477;-89
2020/12/01 03:48:13;;;;;;;10.40;5.47;;;;;;;;;;5035964;28;20447;-90
2020/12/01 03:50:40;;;;;;;19.33;11.30;;;1.40;99.90;;;;;;5036342;28;20433;-90
2020/12/01 03:53:08;;;;;;;19.00;7.73;;;1.30;99.90;;;;;;5036218;28;20453;-88
2020/12/01 03:55:35;;;;;;;21.73;11.77;;;;;;;;;;5034956;28;20542;-89
2020/12/01 03:58:02;;;;;;;10.57;6.47;;;1.40;99.90;;;;;;5041759;28;20480;-87
2020/12/01 04:00:30;;;;;;;20.73;10.40;;;1.50;99.90;;;;;;5044134;28;20445;-90
2020/12/01 04:02:58;;;;;;;11.13;5.23;;;1.50;99.90;;;;;;5034817;28;20448;-91
2020/12/01 04:05:27;;;;;;;19.37;9.17;;;1.50;99.90;;;;;;5034169;28;20929;-88
2020/12/01 04:07:55;;;;;;;12.97;4.03;;;;;;;;;;5033772;28;20522;-88
2020/12/01 04:10:25;;;;;;;18.90;9.70;;;1.50;99.90;;;;;;5033252;28;20517;-89
2020/12/01 04:12:52;;;;;;;16.90;9.10;;;3.00;99.90;;;;;;5033270;28;20453;-87
2020/12/01 04:15:20;;;;;;;17.60;12.20;;;1.10;99.90;;;;;;5033103;28;20959;-86
2020/12/01 04:17:46;;;;;;;26.30;10.33;;;1.40;99.90;;;;;;5032396;28;20460;-85
2020/12/01 04:20:14;;;;;;;20.43;12.17;;;1.50;99.90;;;;;;5032658;28;20448;-88
2020/12/01 04:22:40;;;;;;;11.53;5.80;;;1.30;99.90;;;;;;5032964;28;20446;-87
2020/12/01 04:25:09;;;;;;;26.27;11.50;;;1.50;99.90;;;;;;5032721;28;20444;-87
2020/12/01 04:27:37;;;;;;;24.07;13.13;;;1.40;99.90;;;;;;5032586;28;20454;-86
2020/12/01 04:30:04;;;;;;;13.03;6.70;;;1.40;99.90;;;;;;5032896;28;20452;-86
2020/12/01 04:32:30;;;;;;;17.90;11.20;;;1.50;99.90;;;;;;5034332;28;20449;-86
2020/12/01 04:34:56;;;;;;;29.53;12.30;;;1.40;99.90;;;;;;5033451;28;20442;-87
2020/12/01 04:37:23;;;;;;;16.00;10.07;;;1.40;99.90;;;;;;5032633;28;20452;-87
2020/12/01 04:39:49;;;;;;;15.37;7.83;;;1.50;99.90;;;;;;5032610;28;20502;-88
2020/12/01 04:42:16;;;;;;;21.17;12.40;;;1.50;99.90;;;;;;5032610;28;20444;-86
2020/12/01 04:44:52;;;;;;;22.80;12.90;;;1.50;99.90;;;;;;5034058;28;20452;-86
2020/12/01 04:47:32;;;;;;;19.67;10.10;;;1.50;99.90;;;;;;5035907;28;20813;-88
2020/12/01 04:50:04;;;;;;;14.10;8.17;;;1.50;99.90;;;;;;5035433;28;20447;-85
2020/12/01 04:52:56;;;;;;;9.93;5.27;;;1.50;99.90;;;;;;5036258;28;20463;-90
2020/12/01 04:55:53;;;;;;;19.20;11.40;;;1.60;99.90;;;;;;5033300;28;20477;-86
2020/12/01 04:58:53;;;;;;;12.23;7.80;;;1.50;99.90;;;;;;5033109;28;20553;-88
2020/12/01 05:02:00;;;;;;;20.13;11.90;;;1.50;99.90;;;;;;5035809;28;20451;-85
2020/12/01 05:04:30;;;;;;;19.50;10.67;;;1.60;99.90;;;;;;5034710;28;20447;-86
2020/12/01 05:07:07;;;;;;;23.47;12.37;;;1.60;99.90;;;;;;5035928;28;20487;-93
2020/12/01 05:09:40;;;;;;;8.33;3.50;;;1.60;99.90;;;;;;5036340;28;20478;-87
2020/12/01 05:12:12;;;;;;;16.40;9.20;;;1.70;99.90;;;;;;5033685;28;20515;-87
2020/12/01 05:14:44;;;;;;;17.37;9.40;;;1.60;99.90;;;;;;5033714;28;20449;-89
2020/12/01 05:17:48;;;;;;;16.83;10.00;;;1.60;99.90;;;;;;5035428;28;20449;-89
2020/12/01 05:20:15;;;;;;;27.30;14.80;;;1.60;99.90;;;;;;5035628;28;20472;-87
2020/12/01 05:22:47;;;;;;;21.37;14.27;;;1.60;99.90;;;;;;5035725;28;20972;-85
2020/12/01 05:25:18;;;;;;;28.03;14.17;;;1.60;99.90;;;;;;5035905;28;20450;-86
2020/12/01 05:27:45;;;;;;;20.23;11.80;;;1.60;99.90;;;;;;5041829;28;20456;-85
2020/12/01 05:30:15;;;;;;;22.23;12.17;;;1.60;99.90;;;;;;5042018;28;20445;-86
2020/12/01 05:32:50;;;;;;;5.37;3.20;;;1.60;99.90;;;;;;5034697;28;20445;-86
2020/12/01 05:35:22;;;;;;;19.87;11.97;;;1.70;99.90;;;;;;5034876;28;20440;-91
2020/12/01 05:38:15;;;;;;;18.43;9.90;;;1.70;99.90;;;;;;5036138;28;20808;-85
2020/12/01 05:40:48;;;;;;;17.13;9.10;;;1.80;99.90;;;;;;5036355;28;20446;-87
2020/12/01 05:43:23;;;;;;;5.57;3.00;;;1.70;99.90;;;;;;5036979;28;20456;-86
2020/12/01 05:45:49;;;;;;;19.70;10.27;;;1.80;99.90;;;;;;5035824;28;20456;-87
2020/12/01 05:48:36;;;;;;;11.80;6.30;;;1.70;99.90;;;;;;5034546;28;20448;-93
2020/12/01 05:51:09;;;;;;;18.50;9.60;;;1.70;99.90;;;;;;5035440;28;20448;-87
2020/12/01 05:53:35;;;;;;;21.43;13.07;;;1.80;99.90;;;;;;5035469;28;20453;-90
2020/12/01 05:56:13;;;;;;;32.27;17.50;;;1.80;99.90;;;;;;5034685;28;20465;-89
2020/12/01 05:58:42;;;;;;;25.23;12.63;;;1.80;99.90;;;;;;5033748;28;20841;-88
2020/12/01 06:01:09;;;;;;;23.17;13.57;;;1.80;99.90;;;;;;5034841;28;20535;-89
2020/12/01 06:03:49;;;;;;;20.60;12.20;;;1.80;99.90;;;;;;5033743;28;20452;-86
2020/12/01 06:06:17;;;;;;;13.97;6.83;;;1.80;99.90;;;;;;5034819;28;20438;-87
2020/12/01 06:08:52;;;;;;;17.70;9.60;;;1.80;99.90;;;;;;5035020;28;20442;-89
2020/12/01 06:11:34;;;;;;;16.30;8.47;;;1.70;99.90;;;;;;5034663;28;20448;-87
2020/12/01 06:14:09;;;;;;;17.87;11.40;;;1.80;99.90;;;;;;5034608;28;20441;-89
2020/12/01 06:16:42;;;;;;;16.00;10.60;;;1.70;99.90;;;;;;5034543;28;20452;-91
2020/12/01 06:19:22;;;;;;;21.07;12.03;;;1.70;99.90;;;;;;5033591;28;20495;-91
2020/12/01 06:22:36;;;;;;;17.23;8.33;;;1.70;99.90;;;;;;5034906;28;20450;-92
2020/12/01 06:25:27;;;;;;;14.17;9.20;;;1.80;99.90;;;;;;4954588;29;20490;-87
2020/12/01 06:28:50;;;;;;;12.53;7.47;;;1.70;99.90;;;;;;5034430;28;20458;-86
2020/12/01 06:31:39;;;;;;;18.30;11.80;;;1.70;99.90;;;;;;4954479;29;20462;-86
2020/12/01 06:34:31;;;;;;;13.50;7.80;;;1.70;99.90;;;;;;4953228;29;20828;-89
2020/12/01 06:37:19;;;;;;;16.50;8.60;;;1.70;99.90;;;;;;5029007;28;20942;-87
2020/12/01 06:40:02;;;;;;;14.57;8.20;;;1.70;99.90;;;;;;5034287;28;20519;-88
2020/12/01 06:42:37;;;;;;;13.83;8.63;;;1.80;99.90;;;;;;5034530;28;20467;-87
2020/12/01 06:45:12;;;;;;;12.93;7.80;;;1.70;99.90;;;;;;5033967;28;20448;-89
2020/12/01 06:47:39;;;;;;;12.37;7.87;;;1.70;99.90;;;;;;5034417;28;20939;-86
2020/12/01 06:50:13;;;;;;;15.27;9.03;;;1.70;99.90;;;;;;5052138;28;20434;-89
2020/12/01 06:52:40;;;;;;;12.33;8.37;;;1.70;99.90;;;;;;5034514;28;20462;-87
2020/12/01 06:55:06;;;;;;;12.00;8.07;;;1.70;99.90;;;;;;5034143;28;20466;-87
2020/12/01 06:57:35;;;;;;;11.77;7.57;;;1.70;99.90;;;;;;5043909;28;20477;-85
2020/12/01 07:00:04;;;;;;;18.07;8.93;;;1.70;99.90;;;;;;5038684;28;20589;-87
2020/12/01 07:02:33;;;;;;;13.37;7.73;;;1.70;99.90;;;;;;5044461;28;20946;-87
2020/12/01 07:05:11;;;;;;;10.60;6.83;;;1.70;99.90;;;;;;5036703;28;20915;-88
2020/12/01 07:07:41;;;;;;;14.20;7.50;;;1.70;99.90;;;;;;5032903;28;20446;-88
2020/12/01 07:10:25;;;;;;;13.03;6.40;;;1.70;99.90;;;;;;5033202;28;20508;-87
2020/12/01 07:13:02;;;;;;;10.97;7.07;;;1.70;99.90;;;;;;5030956;28;20453;-87
2020/12/01 07:15:38;;;;;;;13.87;7.80;;;1.70;99.90;;;;;;5033399;28;20450;-87
2020/12/01 07:18:10;;;;;;;15.83;7.80;;;1.70;99.90;;;;;;5034532;28;20437;-86
2020/12/01 07:20:46;;;;;;;13.53;7.40;;;1.70;99.90;;;;;;5035425;28;20449;-86
2020/12/01 07:23:28;;;;;;;10.00;6.50;;;1.70;99.90;;;;;;5033722;28;20477;-87
2020/12/01 07:26:01;;;;;;;12.00;6.77;;;1.70;99.90;;;;;;5033797;28;20449;-86
2020/12/01 07:28:36;;;;;;;9.63;6.20;;;1.70;99.90;;;;;;5033553;28;20451;-87
2020/12/01 07:31:17;;;;;;;9.43;6.20;;;1.70;99.90;;;;;;5033062;28;20457;-88
2020/12/01 07:33:52;;;;;;;10.83;6.47;;;1.70;99.90;;;;;;5031648;28;20453;-86
2020/12/01 07:36:30;;;;;;;9.37;5.67;;;1.70;99.90;;;;;;5032030;28;20459;-86
2020/12/01 07:39:13;;;;;;;13.37;6.23;;;1.70;99.90;;;;;;5033096;28;20498;-90
2020/12/01 07:41:52;;;;;;;10.03;6.10;;;1.80;99.90;;;;;;5033008;28;20449;-86
2020/12/01 07:44:22;;;;;;;8.50;4.93;;;1.70;99.90;;;;;;5031862;28;20457;-86
2020/12/01 07:47:00;;;;;;;9.30;5.30;;;1.80;99.90;;;;;;5032585;28;20455;-86
2020/12/01 07:49:28;;;;;;;7.50;5.10;;;1.80;99.90;;;;;;5031460;28;20458;-86
2020/12/01 07:52:01;;;;;;;8.17;5.27;;;1.80;99.90;;;;;;5027919;28;20455;-87
2020/12/01 07:54:28;;;;;;;8.40;4.60;;;1.80;99.90;;;;;;5032936;28;20478;-87
2020/12/01 07:56:55;;;;;;;12.10;4.93;;;1.80;99.90;;;;;;5032567;28;20873;-88
2020/12/01 07:59:22;;;;;;;7.17;4.17;;;1.80;99.90;;;;;;5032565;28;20864;-87
2020/12/01 08:01:48;;;;;;;7.90;4.47;;;1.80;99.90;;;;;;5032661;28;20453;-85
2020/12/01 08:04:16;;;;;;;7.03;3.53;;;1.70;99.90;;;;;;5031630;28;20453;-90
2020/12/01 08:06:43;;;;;;;6.40;3.63;;;1.70;99.90;;;;;;5032633;28;20453;-85
2020/12/01 08:09:20;;;;;;;3.80;3.43;;;1.70;99.90;;;;;;5032686;28;20458;-87
2020/12/01 08:11:48;;;;;;;7.47;3.77;;;1.70;99.90;;;;;;5032442;28;20447;-88
2020/12/01 08:14:15;;;;;;;10.03;3.80;;;1.80;99.90;;;;;;5032727;28;20452;-86
2020/12/01 08:16:43;;;;;;;5.20;3.50;;;1.80;99.90;;;;;;5032976;28;20457;-87
2020/12/01 08:19:12;;;;;;;7.63;3.87;;;1.80;99.90;;;;;;5032206;28;20489;-86
2020/12/01 08:21:43;;;;;;;2.63;1.63;;;1.80;99.90;;;;;;5036686;28;20445;-87
2020/12/01 08:24:13;;;;;;;5.53;3.70;;;1.80;99.90;;;;;;5036554;28;20438;-87
2020/12/01 08:26:40;;;;;;;6.63;3.60;;;1.80;99.90;;;;;;5048101;28;20455;-85
2020/12/01 08:29:14;;;;;;;6.60;3.90;;;1.80;99.90;;;;;;5037469;28;20460;-85
2020/12/01 08:31:48;;;;;;;4.60;3.47;;;1.80;99.90;;;;;;5036446;28;20447;-86
2020/12/01 08:34:33;;;;;;;5.37;3.57;;;1.80;99.90;;;;;;5032635;28;20961;-86
2020/12/01 08:37:11;;;;;;;2.50;2.20;;;1.80;99.90;;;;;;5036218;28;20458;-86
2020/12/01 08:39:54;;;;;;;5.30;3.93;;;1.80;99.90;;;;;;5035975;28;20510;-85
2020/12/01 08:42:31;;;;;;;10.20;3.77;;;1.80;99.90;;;;;;5036348;28;20485;-86
2020/12/01 08:45:05;;;;;;;5.73;3.13;;;1.90;99.90;;;;;;5035704;28;20815;-86
2020/12/01 08:47:33;;;;;;;3.70;2.90;;;1.80;99.90;;;;;;5036247;28;20436;-87
2020/12/01 08:49:59;;;;;;;4.63;3.00;;;1.80;99.90;;;;;;5034786;28;20450;-86
2020/12/01 08:52:34;;;;;;;3.40;2.90;;;2.20;99.90;;;;;;5036107;28;20787;-86
2020/12/01 08:55:04;;;;;;;4.87;3.50;;;2.10;99.90;;;;;;5036179;28;20470;-86
2020/12/01 08:57:34;;;;;;;5.33;3.20;;;2.00;99.90;;;;;;5036176;28;20840;-87
2020/12/01 09:00:09;;;;;;;5.50;3.80;;;2.00;99.90;;;;;;5036499;28;20506;-88
2020/12/01 09:02:41;;;;;;;14.40;6.70;;;1.90;99.90;;;;;;5036046;28;20448;-86
2020/12/01 09:05:21;;;;;;;9.20;4.90;;;1.90;99.90;;;;;;5049157;28;20508;-87
2020/12/01 09:07:51;;;;;;;9.97;4.77;;;1.90;99.90;;;;;;5044507;28;20778;-87
2020/12/01 09:10:24;;;;;;;12.27;7.90;;;2.00;99.90;;;;;;5036630;28;20498;-88
2020/12/01 09:13:06;;;;;;;8.23;4.87;;;2.00;99.90;;;;;;5036357;28;20525;-88
2020/12/01 09:15:39;;;;;;;4.87;3.50;;;2.00;99.90;;;;;;5036295;28;20798;-88
2020/12/01 09:18:26;;;;;;;3.80;3.27;;;2.00;99.90;;;;;;5035371;28;20937;-90
2020/12/01 09:21:51;;;;;;;5.63;3.70;;;2.00;99.90;;;;;;5036046;28;20450;-88
2020/12/01 09:23:59;;;;;;;13.40;8.50;;;2.00;99.90;;;;;;5035552;28;21008;-87
2020/12/01 09:26:26;;;;;;;13.30;5.00;;;2.10;99.90;;;;;;5033909;28;20446;-89
2020/12/01 09:28:54;;;;;;;8.27;4.70;;;2.10;99.90;;;;;;5035772;28;20450;-86
2020/12/01 09:31:22;;;;;;;7.20;5.27;;;2.10;99.90;;;;;;5035247;28;20447;-86
2020/12/01 09:33:49;;;;;;;9.50;6.50;;;2.10;99.90;;;;;;5034222;28;20451;-86
2020/12/01 09:36:17;;;;;;;7.80;6.03;;;2.10;99.90;;;;;;5035446;28;20448;-87
2020/12/01 09:38:44;;;;;;;11.83;4.70;;;2.10;99.90;;;;;;5035513;28;20494;-87
2020/12/01 09:41:15;;;;;;;5.93;3.87;;;2.10;99.90;;;;;;5035063;28;20448;-87
2020/12/01 09:43:45;;;;;;;4.47;3.30;;;2.10;99.90;;;;;;5036675;28;20944;-93
2020/12/01 09:46:13;;;;;;;5.53;4.20;;;2.10;99.90;;;;;;5037936;28;20448;-92
2020/12/01 09:48:42;;;;;;;4.17;3.70;;;2.10;99.90;;;;;;5033037;28;20449;-91
2020/12/01 09:51:10;;;;;;;9.23;6.20;;;2.20;99.90;;;;;;5038421;28;20489;-92
2020/12/01 09:53:44;;;;;;;12.20;8.00;;;2.20;99.90;;;;;;5038567;28;20467;-93
2020/12/01 09:56:18;;;;;;;49.40;41.47;;;2.30;99.90;;;;;;5059258;28;20494;-89
2020/12/01 10:10:04;;;;;;;11.40;9.20;;;2.20;99.90;;;;;;5037738;28;20469;-91
2020/12/01 10:12:44;;;;;;;11.37;7.50;;;2.10;99.90;;;;;;5026486;28;20566;-91
2020/12/01 10:18:21;;;;;;;9.70;7.40;;;2.10;99.90;;;;;;5021335;28;20417;-94
2020/12/01 10:21:22;;;;;;;9.07;6.57;;;2.10;99.90;;;;;;5024985;28;20447;-92
2020/12/01 10:32:16;;;;;;;7.50;5.67;;;2.10;99.90;;;;;;5032960;28;20468;-90
2020/12/01 10:34:46;;;;;;;7.53;6.57;;;2.10;99.90;;;;;;5016547;28;20502;-90
2020/12/01 10:39:39;;;;;;;7.83;4.90;;;2.10;99.90;;;;;;5073472;23;20485;-91
2020/12/01 10:42:22;;;;;;;6.53;4.57;;;2.30;99.90;;;;;;5074906;23;20253;-92
2020/12/01 10:44:48;;;;;;;8.50;5.47;;;;;;;;;;5068533;28;20965;-92
2020/12/01 10:47:15;;;;;;;5.77;4.23;;;2.00;99.90;;;;;;5059455;28;20800;-94
2020/12/01 10:49:41;;;;;;;4.57;4.07;;;2.10;99.90;;;;;;5052729;28;20447;-95
2020/12/01 10:52:08;;;;;;;6.90;4.60;;;2.10;99.90;;;;;;5057275;28;20447;-92
2020/12/01 10:54:35;;;;;;;10.63;4.10;;;2.10;99.90;;;;;;5056139;28;20995;-93
2020/12/01 10:57:02;;;;;;;5.57;3.60;;;2.10;99.90;;;;;;5057227;28;20451;-93
2020/12/01 10:59:36;;;;;;;9.73;5.10;;;2.20;99.90;;;;;;5057987;28;20482;-91
2020/12/01 11:02:02;;;;;;;6.90;4.70;;;2.30;99.90;;;;;;5058853;28;20442;-92
2020/12/01 11:04:29;;;;;;;30.97;27.73;;;2.20;99.90;;;;;;5063912;28;20441;-93
2020/12/01 11:06:55;;;;;;;7.97;5.93;;;2.30;99.90;;;;;;5053457;28;20454;-91
2020/12/01 11:09:21;;;;;;;17.77;8.10;;;2.40;99.90;;;;;;5060642;28;20447;-96
2020/12/01 11:11:48;;;;;;;6.70;5.63;;;2.40;99.90;;;;;;5063666;28;20480;-91
2020/12/01 11:14:15;;;;;;;6.20;5.03;;;2.40;99.90;;;;;;5057123;28;20469;-91
2020/12/01 11:16:41;;;;;;;11.70;5.73;;;2.40;99.90;;;;;;5050335;28;20801;-86
2020/12/01 11:19:08;;;;;;;7.47;5.93;;;2.40;99.90;;;;;;5052852;28;20504;-89
2020/12/01 11:21:38;;;;;;;7.67;5.33;;;2.40;99.90;;;;;;5055250;28;20442;-87
2020/12/01 11:24:05;;;;;;;7.90;6.10;;;2.40;99.90;;;;;;5073041;28;20446;-87
2020/12/01 11:26:32;;;;;;;9.70;7.23;;;2.40;99.90;;;;;;5063609;28;20457;-88
2020/12/01 11:28:59;;;;;;;8.63;6.03;;;2.40;99.90;;;;;;5054768;28;20457;-91
2020/12/01 11:31:26;;;;;;;7.13;4.83;;;2.30;99.90;;;;;;5053889;28;20455;-90
2020/12/01 11:34:04;;;;;;;6.77;4.97;;;2.40;99.90;;;;;;5052631;28;20453;-90
2020/12/01 11:36:31;;;;;;;7.30;4.40;;;2.40;99.90;;;;;;5053238;28;20451;-89
2020/12/01 11:38:58;;;;;;;6.90;4.90;;;2.40;99.90;;;;;;5053162;28;20489;-87
2020/12/01 11:41:24;;;;;;;5.87;5.17;;;2.30;99.90;;;;;;5053034;28;20452;-88
2020/12/01 11:43:51;;;;;;;7.10;5.00;;;2.40;99.90;;;;;;5050697;28;20446;-88
2020/12/01 11:46:18;;;;;;;54.43;40.50;;;2.40;99.90;;;;;;5052884;28;20462;-87
2020/12/01 11:48:45;;;;;;;16.73;5.93;;;2.30;99.90;;;;;;5052237;28;20451;-88
2020/12/01 11:51:11;;;;;;;12.70;5.70;;;2.30;99.90;;;;;;5050360;28;20460;-88
2020/12/01 11:53:38;;;;;;;14.03;12.17;;;2.30;99.90;;;;;;5055280;28;20477;-88
2020/12/01 11:56:04;;;;;;;8.90;6.47;;;2.30;99.90;;;;;;5057542;28;20973;-88
2020/12/01 11:58:31;;;;;;;8.73;7.60;;;2.40;99.90;;;;;;5059295;28;20453;-90
2020/12/01 12:00:57;;;;;;;9.37;5.77;;;2.40;99.90;;;;;;5058464;28;20448;-91
2020/12/01 12:03:23;;;;;;;26.53;23.10;;;2.40;99.90;;;;;;5056401;28;20459;-87
2020/12/01 12:05:50;;;;;;;8.43;7.30;;;2.50;99.90;;;;;;5055366;28;20434;-89
2020/12/01 12:08:17;;;;;;;12.13;9.63;;;2.50;99.90;;;;;;5057487;28;20465;-89
2020/12/01 12:10:43;;;;;;;12.47;11.00;;;;;;;;;;5057385;28;20446;-91
2020/12/01 12:13:09;;;;;;;27.27;23.37;;;2.50;99.90;;;;;;5058065;28;20787;-89
2020/12/01 12:15:36;;;;;;;13.50;10.93;;;2.50;99.90;;;;;;5057812;28;20825;-90
2020/12/01 12:18:02;;;;;;;13.00;10.17;;;2.50;99.90;;;;;;5056928;28;21220;-90
2020/12/01 12:20:28;;;;;;;10.47;8.83;;;2.40;99.90;;;;;;5057048;28;21008;-88
2020/12/01 12:22:55;;;;;;;7.20;5.83;;;2.40;99.90;;;;;;5057065;28;20454;-91
2020/12/01 12:25:22;;;;;;;13.87;8.03;;;2.40;99.90;;;;;;5056889;28;20456;-90
2020/12/01 12:27:48;;;;;;;8.13;6.20;;;2.40;99.90;;;;;;5056704;28;20444;-89
2020/12/01 12:30:14;;;;;;;10.40;7.10;;;2.40;99.90;;;;;;5057027;28;20448;-89
2020/12/01 12:32:41;;;;;;;9.40;7.40;;;2.40;99.90;;;;;;5057299;28;20450;-88
2020/12/01 12:35:07;;;;;;;15.70;6.30;;;2.40;99.90;;;;;;5057218;28;20450;-91
2020/12/01 12:37:34;;;;;;;7.23;6.07;;;2.40;99.90;;;;;;5059017;28;20453;-91
2020/12/01 12:40:01;;;;;;;14.60;12.77;;;2.40;99.90;;;;;;5078010;28;20503;-94
2020/12/01 12:42:27;;;;;;;11.57;10.27;;;2.40;99.90;;;;;;5079543;28;20527;-90
2020/12/01 12:44:54;;;;;;;19.13;13.30;;;2.40;99.90;;;;;;5078878;28;20448;-90
2020/12/01 12:47:20;;;;;;;16.83;12.30;;;2.40;99.90;;;;;;5073058;28;20465;-91
2020/12/01 12:49:46;;;;;;;12.73;8.97;;;2.50;99.90;;;;;;5075990;28;20447;-92
2020/12/01 12:52:12;;;;;;;9.27;7.60;;;2.50;99.90;;;;;;5076682;28;20442;-90
2020/12/01 12:54:38;;;;;;;6.43;5.00;;;2.50;99.90;;;;;;5088493;28;20467;-88
2020/12/01 12:57:06;;;;;;;8.17;5.50;;;2.50;99.90;;;;;;5078395;28;20897;-92
2020/12/01 12:59:32;;;;;;;7.53;5.53;;;2.40;99.90;;;;;;5076827;28;20489;-89
2020/12/01 13:01:59;;;;;;;7.27;6.10;;;2.40;99.90;;;;;;5076497;28;20456;-92
2020/12/01 13:04:25;;;;;;;7.40;5.80;;;2.40;99.90;;;;;;5071638;28;20461;-90
2020/12/01 13:06:51;;;;;;;7.93;6.53;;;2.40;99.90;;;;;;5073943;28;20450;-87
2020/12/01 13:09:19;;;;;;;10.23;6.30;;;2.50;99.90;;;;;;5065567;28;20452;-92
2020/12/01 13:11:45;;;;;;;54.27;33.03;;;2.50;99.90;;;;;;5057058;28;20432;-91
2020/12/01 13:14:13;;;;;;;14.00;10.53;;;2.70;99.90;;;;;;5056973;28;20450;-89
2020/12/01 13:16:39;;;;;;;10.67;8.20;;;2.50;99.90;;;;;;5056248;28;20440;-90
2020/12/01 13:19:05;;;;;;;11.47;10.00;;;;;;;;;;5056050;28;20477;-89
2020/12/01 13:21:34;;;;;;;8.57;7.53;;;2.50;99.90;;;;;;5056184;28;20447;-90
2020/12/01 13:24:01;;;;;;;12.80;9.47;;;;;;;;;;5056177;28;20465;-90
2020/12/01 13:26:27;;;;;;;10.17;8.57;;;2.60;99.90;;;;;;5056248;28;20442;-92
2020/12/01 13:28:53;;;;;;;11.53;9.10;;;2.60;99.90;;;;;;5052953;28;20461;-90
2020/12/01 13:31:20;;;;;;;15.40;8.70;;;2.60;99.90;;;;;;5053292;28;20446;-88
2020/12/01 13:33:47;;;;;;;14.83;8.00;;;2.60;99.90;;;;;;5056383;28;20808;-90
2020/12/01 13:36:13;;;;;;;8.80;7.10;;;2.50;99.90;;;;;;5053190;28;20450;-91